Time;durP1;ratioP1;P1;durP2;ratioP2;P2;SDS_P1;SDS_P2;PMS_P1;PMS_P2;Temp;Humidity;BMP_temperature;BMP_pressure;BME280_temperature;BME280_humidity;BME280_pressure;Samples;Min_cycle;Max_cycle;Signal;HPM_P1;HPM_P2
2022/08/01 00:00:40;;;;;;;3.13;2.83;;;25.30;60.60;;;;;;4999256;28;20481;-65
2022/08/01 00:03:05;;;;;;;3.65;2.60;;;25.30;60.50;;;;;;4988582;28;20481;-66
2022/08/01 00:05:32;;;;;;;3.53;2.60;;;25.30;60.60;;;;;;4992767;28;20395;-65
2022/08/01 00:07:57;;;;;;;4.55;2.70;;;25.30;60.50;;;;;;4994242;28;20406;-66
2022/08/01 00:10:24;;;;;;;3.45;2.72;;;25.30;60.50;;;;;;4994306;28;20405;-66
2022/08/01 00:12:49;;;;;;;3.05;2.58;;;25.30;60.60;;;;;;4994432;28;20878;-65
2022/08/01 00:15:16;;;;;;;4.30;2.72;;;25.30;60.50;;;;;;4993108;28;20450;-65
2022/08/01 00:17:43;;;;;;;3.20;2.60;;;25.30;60.50;;;;;;4993849;28;20963;-65
2022/08/01 00:20:11;;;;;;;3.85;2.85;;;25.30;60.50;;;;;;4993182;28;20406;-65
2022/08/01 00:22:37;;;;;;;3.72;2.85;;;25.30;60.50;;;;;;4994262;28;20395;-65
2022/08/01 00:25:04;;;;;;;3.87;2.70;;;25.30;60.50;;;;;;4992949;28;20451;-65
2022/08/01 00:27:30;;;;;;;3.30;2.90;;;25.30;60.50;;;;;;5008717;28;20465;-66
2022/08/01 00:29:56;;;;;;;3.00;2.70;;;25.30;60.50;;;;;;4994128;28;20811;-65
2022/08/01 00:32:21;;;;;;;3.22;2.60;;;25.30;60.50;;;;;;4994128;28;20391;-65
2022/08/01 00:34:47;;;;;;;3.80;2.80;;;25.30;60.50;;;;;;4993595;28;20421;-66
2022/08/01 00:37:12;;;;;;;3.10;2.60;;;25.30;60.50;;;;;;5007397;28;21057;-66
2022/08/01 00:39:38;;;;;;;3.38;2.90;;;25.30;60.40;;;;;;5012754;28;20408;-66
2022/08/01 00:42:09;;;;;;;3.63;2.80;;;25.30;60.40;;;;;;5013564;28;20396;-67
2022/08/01 00:44:35;;;;;;;2.97;2.67;;;25.30;60.40;;;;;;5013397;28;20393;-68
2022/08/01 00:47:03;;;;;;;3.33;2.80;;;25.30;60.40;;;;;;5013427;28;20412;-65
2022/08/01 00:49:28;;;;;;;3.17;2.72;;;25.30;60.40;;;;;;5012840;28;20436;-65
2022/08/01 00:51:55;;;;;;;3.03;2.73;;;25.20;60.20;;;;;;5013403;28;20429;-66
2022/08/01 00:54:21;;;;;;;3.10;2.80;;;25.30;60.30;;;;;;5013322;28;20876;-65
2022/08/01 00:56:47;;;;;;;3.50;3.20;;;25.20;60.30;;;;;;5012806;28;20412;-65
2022/08/01 00:59:16;;;;;;;2.80;2.60;;;25.20;60.20;;;;;;5012681;28;20447;-71
2022/08/01 01:01:42;;;;;;;3.10;2.80;;;25.30;60.30;;;;;;5012658;28;20385;-66
2022/08/01 01:04:08;;;;;;;3.20;2.90;;;25.30;60.40;;;;;;5013227;28;20472;-65
2022/08/01 01:07:12;;;;;;;3.63;2.70;;;25.30;60.30;;;;;;5013252;28;20463;-65
2022/08/01 01:09:47;;;;;;;3.10;2.80;;;25.20;60.30;;;;;;4978678;28;20420;-65
2022/08/01 01:12:28;;;;;;;3.45;2.50;;;25.30;60.40;;;;;;5012529;28;20389;-65
2022/08/01 01:15:22;;;;;;;3.08;2.72;;;25.20;60.30;;;;;;5012987;28;20393;-66
2022/08/01 01:18:07;;;;;;;3.45;2.40;;;25.30;60.20;;;;;;5011368;28;20560;-65
2022/08/01 01:20:44;;;;;;;3.08;2.78;;;25.20;60.20;;;;;;5012865;28;20480;-66
2022/08/01 01:23:42;;;;;;;3.08;2.78;;;25.30;60.30;;;;;;5012884;28;20389;-66
2022/08/01 01:26:49;;;;;;;2.97;2.67;;;25.20;60.30;;;;;;5012804;28;20389;-68
2022/08/01 01:29:27;;;;;;;3.00;2.70;;;25.20;60.40;;;;;;5012098;28;20937;-66
2022/08/01 01:32:04;;;;;;;3.40;2.83;;;25.20;60.20;;;;;;4994964;28;20400;-66
2022/08/01 01:34:35;;;;;;;3.10;2.80;;;25.20;60.20;;;;;;4994530;28;21015;-66
2022/08/01 01:37:04;;;;;;;3.05;2.75;;;25.20;60.20;;;;;;5012236;28;20405;-68
2022/08/01 01:39:32;;;;;;;3.30;2.77;;;25.20;60.30;;;;;;5012135;28;20415;-66
2022/08/01 01:41:59;;;;;;;3.20;2.90;;;25.20;60.30;;;;;;5012469;28;20523;-66
2022/08/01 01:44:27;;;;;;;2.80;2.60;;;25.20;60.20;;;;;;5012433;28;20404;-67
2022/08/01 01:46:55;;;;;;;2.70;2.50;;;25.20;60.20;;;;;;5011956;28;20399;-68
2022/08/01 01:49:26;;;;;;;2.70;2.50;;;25.20;60.20;;;;;;5012303;28;20424;-67
2022/08/01 01:51:56;;;;;;;2.85;2.65;;;25.20;60.30;;;;;;5012101;28;20895;-65
2022/08/01 01:54:24;;;;;;;2.83;2.53;;;25.20;60.30;;;;;;5012423;28;20896;-67
2022/08/01 01:56:52;;;;;;;3.17;2.78;;;25.20;60.30;;;;;;5012299;28;20746;-66
2022/08/01 01:59:26;;;;;;;3.60;2.80;;;25.20;60.20;;;;;;5012244;28;20451;-66
2022/08/01 02:01:53;;;;;;;2.93;2.63;;;25.20;60.30;;;;;;5011916;28;21089;-65
2022/08/01 02:04:21;;;;;;;2.97;2.67;;;25.20;60.30;;;;;;4994640;28;20408;-66
2022/08/01 02:06:51;;;;;;;3.00;2.70;;;25.20;60.20;;;;;;5012125;28;20387;-66
2022/08/01 02:09:19;;;;;;;3.10;2.90;;;25.20;60.80;;;;;;5012087;28;20421;-65
2022/08/01 02:11:47;;;;;;;3.10;2.80;;;25.10;60.30;;;;;;4993958;28;20397;-65
2022/08/01 02:14:15;;;;;;;3.00;2.70;;;25.10;60.20;;;;;;5012074;28;20599;-65
2022/08/01 02:16:44;;;;;;;2.67;2.40;;;25.10;60.30;;;;;;4994481;28;20407;-65
2022/08/01 02:19:10;;;;;;;3.60;2.90;;;25.10;60.30;;;;;;5011859;28;20407;-66
2022/08/01 02:21:44;;;;;;;2.60;2.40;;;25.10;60.20;;;;;;5010115;28;20480;-66
2022/08/01 02:24:22;;;;;;;3.00;2.60;;;25.10;60.20;;;;;;5011886;28;20965;-66
2022/08/01 02:26:52;;;;;;;3.03;2.83;;;25.20;60.30;;;;;;5011929;28;20850;-66
2022/08/01 02:29:26;;;;;;;3.03;2.72;;;25.20;60.30;;;;;;5011830;28;20443;-66
2022/08/01 02:31:54;;;;;;;2.70;2.50;;;25.10;60.20;;;;;;5011324;28;20443;-66
2022/08/01 02:34:20;;;;;;;2.75;2.50;;;25.10;60.90;;;;;;5011839;28;20463;-66
2022/08/01 02:36:48;;;;;;;2.88;2.67;;;25.10;60.20;;;;;;5011679;28;20420;-65
2022/08/01 02:39:17;;;;;;;3.25;2.95;;;25.10;60.20;;;;;;5011659;28;20400;-65
2022/08/01 02:41:48;;;;;;;3.40;2.90;;;25.10;60.20;;;;;;4993609;28;20389;-65
2022/08/01 02:44:27;;;;;;;3.25;2.95;;;25.10;60.20;;;;;;5011732;28;20401;-66
2022/08/01 02:47:02;;;;;;;3.00;2.80;;;25.10;60.20;;;;;;5011603;28;20396;-66
2022/08/01 02:49:43;;;;;;;3.17;2.88;;;25.10;60.20;;;;;;5011481;28;20413;-65
2022/08/01 02:52:13;;;;;;;3.10;2.80;;;25.10;60.20;;;;;;5011645;28;20380;-65
2022/08/01 02:54:40;;;;;;;2.90;2.70;;;25.10;60.20;;;;;;5011470;28;20389;-65
2022/08/01 02:58:02;;;;;;;2.97;2.67;;;25.10;60.10;;;;;;5012697;28;20438;-65
2022/08/01 03:00:30;;;;;;;3.50;3.20;;;25.10;60.20;;;;;;5014046;28;20458;-65
2022/08/01 03:02:57;;;;;;;3.13;2.80;;;25.10;60.10;;;;;;5014137;28;20400;-65
2022/08/01 03:05:25;;;;;;;3.58;2.90;;;25.10;60.10;;;;;;5014031;28;20896;-66
2022/08/01 03:07:52;;;;;;;3.13;2.83;;;25.10;60.20;;;;;;5010706;28;20400;-65
2022/08/01 03:10:19;;;;;;;5.30;2.80;;;25.10;60.60;;;;;;5005007;28;20397;-66
2022/08/01 03:12:46;;;;;;;3.10;2.80;;;25.10;61.70;;;;;;5003978;28;20411;-66
2022/08/01 03:15:13;;;;;;;4.57;3.30;;;25.10;61.00;;;;;;5005908;28;20413;-66
2022/08/01 03:17:43;;;;;;;4.47;2.95;;;25.10;62.40;;;;;;5013070;28;20455;-66
2022/08/01 03:20:12;;;;;;;4.60;3.20;;;25.20;61.70;;;;;;5015132;28;20388;-66
2022/08/01 03:22:40;;;;;;;7.10;3.30;;;25.20;61.90;;;;;;5014578;28;20900;-65
2022/08/01 03:25:07;;;;;;;6.57;3.10;;;25.20;63.40;;;;;;4997361;28;20556;-65
2022/08/01 03:27:36;;;;;;;5.70;3.30;;;25.30;63.60;;;;;;5014407;28;20915;-66
2022/08/01 03:30:04;;;;;;;5.87;2.87;;;25.30;63.40;;;;;;5014551;28;20508;-65
2022/08/01 03:32:31;;;;;;;13.27;3.50;;;25.30;63.30;;;;;;5014795;28;20435;-66
2022/08/01 03:34:57;;;;;;;11.57;3.58;;;25.30;63.00;;;;;;5014244;28;20892;-67
2022/08/01 03:37:38;;;;;;;8.88;3.80;;;25.30;62.50;;;;;;5014513;28;20786;-66
2022/08/01 03:40:12;;;;;;;8.45;3.50;;;25.30;62.90;;;;;;5005782;28;20886;-66
2022/08/01 03:42:46;;;;;;;9.32;3.60;;;25.30;62.00;;;;;;5003795;28;20406;-66
2022/08/01 03:45:22;;;;;;;8.98;3.70;;;25.30;62.60;;;;;;4995522;28;20379;-66
2022/08/01 03:47:52;;;;;;;9.07;4.10;;;25.30;62.00;;;;;;4992907;28;20387;-66
2022/08/01 03:50:21;;;;;;;13.25;3.85;;;25.30;61.30;;;;;;4994954;28;20479;-67
2022/08/01 03:52:48;;;;;;;10.52;3.72;;;25.30;60.90;;;;;;5011773;28;20932;-65
2022/08/01 03:55:16;;;;;;;9.00;3.85;;;25.30;61.30;;;;;;5013009;28;20436;-66
2022/08/01 03:57:44;;;;;;;9.75;4.20;;;25.30;61.20;;;;;;4995959;28;20483;-68
2022/08/01 04:00:10;;;;;;;6.90;3.95;;;25.30;62.30;;;;;;5014117;28;20494;-66
2022/08/01 04:02:37;;;;;;;6.97;4.00;;;25.30;61.40;;;;;;5013369;28;20439;-66
2022/08/01 04:05:04;;;;;;;9.30;4.13;;;25.30;61.60;;;;;;5013919;28;20404;-66
2022/08/01 04:07:32;;;;;;;8.15;3.83;;;25.30;61.40;;;;;;5014051;28;20389;-65
2022/08/01 04:09:58;;;;;;;7.88;3.92;;;25.40;61.10;;;;;;5012746;28;20750;-67
2022/08/01 04:12:24;;;;;;;7.18;4.28;;;25.40;61.20;;;;;;5013877;28;20468;-65
2022/08/01 04:14:50;;;;;;;12.63;4.17;;;25.40;60.60;;;;;;5012517;28;20972;-66
2022/08/01 04:17:16;;;;;;;7.18;3.85;;;25.40;60.90;;;;;;4996302;28;20393;-66
2022/08/01 04:19:43;;;;;;;7.20;3.88;;;25.40;60.60;;;;;;5013206;28;20385;-67
2022/08/01 04:22:13;;;;;;;7.53;4.07;;;25.30;60.20;;;;;;5013691;28;20393;-65
2022/08/01 04:24:41;;;;;;;8.68;4.00;;;25.30;59.40;;;;;;5013827;28;20459;-66
2022/08/01 04:27:13;;;;;;;6.50;3.97;;;25.30;60.40;;;;;;5013571;28;20424;-67
2022/08/01 04:29:41;;;;;;;10.90;3.58;;;25.30;60.10;;;;;;5013376;28;20417;-65
2022/08/01 04:32:10;;;;;;;10.38;4.10;;;25.30;59.80;;;;;;4996050;28;20971;-65
2022/08/01 04:34:39;;;;;;;14.10;4.22;;;25.20;59.90;;;;;;5013458;28;20424;-65
2022/08/01 04:37:09;;;;;;;8.88;3.97;;;25.20;59.60;;;;;;5013205;28;20431;-66
2022/08/01 04:39:37;;;;;;;10.10;3.80;;;25.20;59.50;;;;;;5013315;28;20887;-66
2022/08/01 04:42:04;;;;;;;7.55;3.95;;;25.20;59.50;;;;;;4995376;28;20881;-66
2022/08/01 04:44:32;;;;;;;6.20;3.70;;;25.10;59.20;;;;;;4995868;28;20458;-65
2022/08/01 04:46:59;;;;;;;7.03;3.90;;;25.10;59.40;;;;;;5013272;28;20389;-66
2022/08/01 04:49:25;;;;;;;6.47;3.72;;;25.10;59.00;;;;;;5013145;28;20452;-65
2022/08/01 04:51:59;;;;;;;9.20;3.95;;;25.10;59.10;;;;;;5012791;28;20429;-66
2022/08/01 04:54:26;;;;;;;4.88;3.60;;;25.10;59.20;;;;;;5013339;28;20872;-66
2022/08/01 04:56:53;;;;;;;5.68;3.55;;;25.10;59.20;;;;;;5013235;28;20385;-68
2022/08/01 05:02:03;;;;;;;5.43;3.50;;;25.10;59.30;;;;;;5012989;28;20380;-68
2022/08/01 05:04:29;;;;;;;4.28;3.60;;;25.10;59.30;;;;;;5013067;28;20397;-66
2022/08/01 05:06:55;;;;;;;5.30;3.50;;;25.10;59.20;;;;;;5013008;28;20753;-70
2022/08/01 05:09:20;;;;;;;4.63;3.40;;;25.10;59.60;;;;;;5012656;28;20427;-67
2022/08/01 05:11:46;;;;;;;3.67;3.23;;;25.10;59.50;;;;;;5012445;28;20957;-65
2022/08/01 05:14:11;;;;;;;3.77;3.07;;;25.10;59.40;;;;;;5013011;28;20392;-67
2022/08/01 05:16:37;;;;;;;4.80;3.30;;;25.10;59.60;;;;;;5011499;28;20451;-67
2022/08/01 05:19:03;;;;;;;4.47;3.28;;;25.20;59.60;;;;;;5012822;28;20479;-66
2022/08/01 05:21:28;;;;;;;7.07;3.50;;;25.20;59.80;;;;;;4995112;28;20484;-66
2022/08/01 05:23:54;;;;;;;4.03;3.10;;;25.10;59.50;;;;;;5012201;28;20519;-65
2022/08/01 05:26:19;;;;;;;5.53;3.40;;;25.10;59.70;;;;;;5011683;28;20401;-66
2022/08/01 05:28:45;;;;;;;4.53;3.30;;;25.10;59.60;;;;;;5011200;28;20452;-66
2022/08/01 05:31:11;;;;;;;6.23;3.17;;;25.10;59.60;;;;;;5012578;28;20410;-65
2022/08/01 05:33:36;;;;;;;5.53;3.75;;;25.10;60.00;;;;;;5011200;28;20447;-66
2022/08/01 05:36:02;;;;;;;5.07;3.72;;;25.10;59.90;;;;;;5011854;28;20413;-66
2022/08/01 05:38:28;;;;;;;4.90;3.37;;;25.10;59.70;;;;;;5012443;28;20459;-65
2022/08/01 05:40:53;;;;;;;6.05;3.53;;;25.10;59.50;;;;;;5012433;28;20898;-65
2022/08/01 05:43:19;;;;;;;5.03;3.83;;;25.10;59.40;;;;;;5012397;28;20472;-65
2022/08/01 05:45:45;;;;;;;4.00;3.30;;;25.00;59.40;;;;;;5010600;28;20900;-66
2022/08/01 05:48:11;;;;;;;4.40;3.50;;;25.10;59.50;;;;;;4994644;28;20530;-65
2022/08/01 05:50:37;;;;;;;5.60;3.33;;;25.00;59.40;;;;;;5012000;28;20776;-65
2022/08/01 05:53:03;;;;;;;4.53;3.63;;;25.10;59.50;;;;;;5012279;28;20395;-66
2022/08/01 05:55:28;;;;;;;4.38;3.28;;;25.00;59.50;;;;;;4994521;28;20753;-65
2022/08/01 05:57:54;;;;;;;4.80;3.30;;;25.10;59.60;;;;;;5011714;28;20385;-66
2022/08/01 06:00:20;;;;;;;3.40;3.10;;;25.10;59.60;;;;;;5010835;28;20405;-66
2022/08/01 06:02:46;;;;;;;3.80;3.30;;;25.00;59.60;;;;;;5011899;28;20392;-65
2022/08/01 06:05:11;;;;;;;3.63;3.20;;;25.10;59.60;;;;;;4994518;28;20408;-65
2022/08/01 06:07:38;;;;;;;3.47;2.90;;;25.10;59.60;;;;;;5011975;28;20396;-65
2022/08/01 06:10:04;;;;;;;4.68;3.28;;;25.10;59.70;;;;;;5011500;28;20451;-66
2022/08/01 06:12:33;;;;;;;4.82;3.35;;;25.10;59.70;;;;;;5011910;28;20745;-65
2022/08/01 06:14:59;;;;;;;3.70;3.22;;;25.10;59.80;;;;;;5011909;28;20404;-65
2022/08/01 06:17:25;;;;;;;3.13;2.80;;;25.00;59.70;;;;;;5011932;28;20393;-67
2022/08/01 06:19:50;;;;;;;3.70;3.30;;;25.10;59.80;;;;;;5011370;28;20392;-65
2022/08/01 06:22:16;;;;;;;3.70;3.20;;;25.00;59.70;;;;;;5011838;28;20392;-65
2022/08/01 06:24:42;;;;;;;4.30;3.10;;;25.10;59.80;;;;;;5011755;28;20857;-66
2022/08/01 06:27:07;;;;;;;3.50;3.20;;;25.10;59.80;;;;;;5011895;28;20384;-65
2022/08/01 06:29:34;;;;;;;3.77;3.10;;;25.10;59.90;;;;;;5011663;28;20515;-65
2022/08/01 06:32:00;;;;;;;4.10;3.20;;;25.00;59.80;;;;;;5010784;28;20497;-66
2022/08/01 06:34:25;;;;;;;3.50;3.20;;;25.10;59.90;;;;;;5010501;28;20488;-65
2022/08/01 06:36:51;;;;;;;3.37;2.67;;;25.10;59.90;;;;;;5011527;28;20475;-66
2022/08/01 06:39:17;;;;;;;4.32;2.97;;;25.10;59.90;;;;;;5011645;28;20397;-66
2022/08/01 06:41:45;;;;;;;3.53;3.23;;;25.00;59.90;;;;;;5011427;28;20427;-66
2022/08/01 06:44:11;;;;;;;3.10;2.80;;;25.10;60.00;;;;;;5011463;28;20458;-65
2022/08/01 06:46:37;;;;;;;3.13;2.83;;;25.10;59.90;;;;;;4993810;28;20393;-65
2022/08/01 06:49:03;;;;;;;3.60;3.00;;;25.10;59.90;;;;;;5011588;28;20424;-65
2022/08/01 06:51:29;;;;;;;3.65;3.20;;;25.10;59.90;;;;;;5011537;28;20420;-66
2022/08/01 06:53:55;;;;;;;3.47;3.17;;;25.10;59.90;;;;;;4993452;28;20790;-66
2022/08/01 06:56:20;;;;;;;3.60;3.30;;;25.10;60.30;;;;;;5010159;28;20888;-65
2022/08/01 06:58:46;;;;;;;4.28;3.00;;;25.10;59.70;;;;;;5011459;28;20472;-65
2022/08/01 07:01:12;;;;;;;3.22;2.92;;;25.10;59.80;;;;;;5011515;28;20493;-65
2022/08/01 07:03:37;;;;;;;6.00;3.30;;;25.00;59.60;;;;;;5011437;28;20404;-65
2022/08/01 07:06:04;;;;;;;3.35;3.05;;;25.10;59.80;;;;;;5011037;28;20403;-66
2022/08/01 07:08:30;;;;;;;4.80;2.97;;;25.00;59.70;;;;;;5011305;28;20412;-65
2022/08/01 07:10:58;;;;;;;3.65;3.00;;;25.00;59.60;;;;;;5011320;28;20749;-65
2022/08/01 07:13:27;;;;;;;3.92;2.97;;;25.00;59.70;;;;;;5011323;28;20471;-65
2022/08/01 07:15:54;;;;;;;4.35;3.30;;;25.00;59.60;;;;;;5010896;28;20487;-65
2022/08/01 07:18:19;;;;;;;3.50;2.90;;;25.00;59.60;;;;;;5011377;28;20876;-65
2022/08/01 07:20:48;;;;;;;3.50;3.20;;;25.00;59.40;;;;;;5009974;28;20401;-65
2022/08/01 07:23:13;;;;;;;4.13;2.78;;;25.00;59.50;;;;;;5011385;28;20471;-65
2022/08/01 07:25:39;;;;;;;3.83;3.10;;;25.00;59.50;;;;;;5009977;28;20488;-65
2022/08/01 07:28:05;;;;;;;6.28;3.10;;;25.00;59.30;;;;;;5010711;28;20740;-66
2022/08/01 07:30:31;;;;;;;4.87;3.00;;;25.00;59.40;;;;;;5011256;28;20443;-65
2022/08/01 07:32:57;;;;;;;4.50;3.10;;;25.00;59.30;;;;;;5011191;28;20949;-65
2022/08/01 07:35:22;;;;;;;7.93;3.60;;;25.00;59.30;;;;;;5011257;28;20399;-65
2022/08/01 07:37:48;;;;;;;5.45;3.30;;;25.00;59.40;;;;;;5010701;28;20452;-65
2022/08/01 07:40:16;;;;;;;8.33;3.40;;;25.00;59.30;;;;;;5010877;28;20397;-65
2022/08/01 07:42:43;;;;;;;7.22;3.30;;;25.00;59.40;;;;;;5011063;28;20455;-66
2022/08/01 07:45:10;;;;;;;13.43;3.85;;;25.00;59.40;;;;;;5013799;28;20424;-65
2022/08/01 07:47:36;;;;;;;15.35;4.00;;;25.00;59.40;;;;;;5014543;28;20381;-66
2022/08/01 07:50:04;;;;;;;14.17;3.83;;;25.00;59.30;;;;;;4996452;28;20471;-66
2022/08/01 07:52:30;;;;;;;15.50;4.10;;;25.00;59.40;;;;;;5014336;28;20388;-65
2022/08/01 07:54:57;;;;;;;11.15;3.60;;;25.00;59.40;;;;;;4996847;28;20428;-65
2022/08/01 07:57:23;;;;;;;13.15;3.80;;;25.00;59.30;;;;;;4996753;28;20442;-65
2022/08/01 07:59:49;;;;;;;8.82;3.72;;;25.00;59.30;;;;;;4996466;28;20393;-65
2022/08/01 08:02:15;;;;;;;9.93;3.60;;;25.00;59.40;;;;;;5014012;28;20423;-65
2022/08/01 08:04:41;;;;;;;7.93;3.58;;;25.00;59.40;;;;;;5014161;28;20400;-66
2022/08/01 08:07:07;;;;;;;7.32;3.67;;;25.00;59.40;;;;;;5014122;28;20737;-65
2022/08/01 08:09:33;;;;;;;5.67;3.50;;;25.00;59.40;;;;;;5014017;28;20435;-65
2022/08/01 08:11:59;;;;;;;5.13;3.22;;;25.00;59.40;;;;;;5013657;28;20393;-65
2022/08/01 08:14:24;;;;;;;5.43;3.40;;;25.00;59.40;;;;;;4996527;28;20865;-65
2022/08/01 08:16:50;;;;;;;6.10;3.25;;;25.00;59.30;;;;;;5013913;28;20424;-66
2022/08/01 08:19:16;;;;;;;5.30;3.47;;;25.00;59.30;;;;;;5014044;28;20722;-65
2022/08/01 08:21:41;;;;;;;4.93;3.00;;;25.00;59.40;;;;;;5013911;28;20744;-66
2022/08/01 08:24:20;;;;;;;7.03;3.17;;;25.00;59.40;;;;;;4995898;28;20385;-66
2022/08/01 08:26:57;;;;;;;7.10;3.28;;;25.10;59.40;;;;;;5013765;28;20822;-65
2022/08/01 08:29:25;;;;;;;9.13;3.50;;;25.10;59.40;;;;;;5013752;28;20416;-65
2022/08/01 08:31:54;;;;;;;6.60;3.20;;;25.10;59.40;;;;;;5013483;28;20385;-65
2022/08/01 08:34:20;;;;;;;5.47;3.28;;;25.10;59.30;;;;;;5013717;28;20424;-65
2022/08/01 08:36:46;;;;;;;5.73;3.43;;;25.10;59.30;;;;;;5013351;28;20444;-65
2022/08/01 08:39:11;;;;;;;6.38;3.25;;;25.10;59.50;;;;;;5012348;28;20392;-65
2022/08/01 08:41:37;;;;;;;6.57;3.67;;;25.10;59.50;;;;;;5013549;28;20397;-65
2022/08/01 08:44:05;;;;;;;7.00;3.60;;;25.10;59.70;;;;;;5013121;28;20399;-65
2022/08/01 08:46:34;;;;;;;6.93;3.50;;;25.10;59.90;;;;;;5013433;28;20476;-65
2022/08/01 08:49:03;;;;;;;12.77;4.90;;;25.10;59.80;;;;;;5013277;28;20413;-65
2022/08/01 08:51:33;;;;;;;14.05;4.70;;;25.10;60.60;;;;;;5013345;28;20480;-65
2022/08/01 08:54:01;;;;;;;8.68;3.90;;;25.10;60.60;;;;;;5012785;28;20796;-65
2022/08/01 08:56:33;;;;;;;11.50;4.72;;;25.20;60.20;;;;;;5013125;28;20420;-65
2022/08/01 08:58:59;;;;;;;13.38;5.00;;;25.20;61.10;;;;;;5013256;28;20397;-65
2022/08/01 09:01:25;;;;;;;10.43;4.50;;;25.30;61.20;;;;;;5007410;28;20413;-65
2022/08/01 09:03:51;;;;;;;10.65;4.65;;;25.30;61.00;;;;;;5012705;28;20415;-65
2022/08/01 09:06:17;;;;;;;9.13;4.32;;;25.30;61.60;;;;;;5019490;28;20387;-65
2022/08/01 09:08:43;;;;;;;8.80;4.53;;;25.30;61.70;;;;;;5032684;28;20499;-65
2022/08/01 09:11:10;;;;;;;8.68;4.30;;;25.30;61.00;;;;;;5032871;28;20863;-65
2022/08/01 09:13:35;;;;;;;7.63;4.40;;;25.30;60.70;;;;;;5032650;28;20383;-65
2022/08/01 09:16:01;;;;;;;8.02;4.30;;;25.30;60.40;;;;;;5032329;28;20470;-65
2022/08/01 09:18:36;;;;;;;8.27;4.10;;;25.30;60.30;;;;;;5032659;28;20383;-65
2022/08/01 09:21:09;;;;;;;7.88;4.15;;;25.30;60.20;;;;;;5023347;28;20396;-65
2022/08/01 09:23:45;;;;;;;6.20;3.80;;;25.30;60.10;;;;;;4995103;28;20393;-65
2022/08/01 09:26:19;;;;;;;7.18;3.92;;;25.30;60.00;;;;;;5023551;28;20379;-65
2022/08/01 09:28:47;;;;;;;7.75;4.05;;;25.30;60.00;;;;;;5032416;28;20411;-65
2022/08/01 09:31:16;;;;;;;6.20;3.70;;;25.30;60.00;;;;;;5032407;28;20433;-65
2022/08/01 09:33:58;;;;;;;6.30;4.30;;;25.30;59.80;;;;;;5032201;28;20592;-65
2022/08/01 09:36:43;;;;;;;5.35;3.78;;;25.30;59.80;;;;;;5015987;28;20448;-65
2022/08/01 09:39:13;;;;;;;5.72;3.80;;;25.30;59.80;;;;;;5012539;28;20393;-65
2022/08/01 09:41:39;;;;;;;5.75;3.97;;;25.30;59.70;;;;;;5012450;28;20389;-65
2022/08/01 09:44:05;;;;;;;5.78;4.03;;;25.30;59.60;;;;;;5011897;28;20380;-65
2022/08/01 09:46:31;;;;;;;5.53;3.97;;;25.40;59.90;;;;;;5012425;28;20881;-65
2022/08/01 09:49:06;;;;;;;5.20;3.70;;;25.30;60.30;;;;;;5012225;28;20416;-66
2022/08/01 09:51:35;;;;;;;6.90;3.90;;;25.30;59.60;;;;;;5012291;28;20900;-65
2022/08/01 09:54:06;;;;;;;6.05;3.65;;;25.40;59.70;;;;;;5011685;28;20393;-65
2022/08/01 09:56:43;;;;;;;5.35;3.88;;;25.40;59.60;;;;;;5011314;28;20389;-65
2022/08/01 09:59:09;;;;;;;4.53;3.50;;;25.40;59.50;;;;;;5009630;28;20777;-66
2022/08/01 10:01:47;;;;;;;6.35;4.10;;;25.40;59.50;;;;;;5008835;28;20402;-65
2022/08/01 10:04:24;;;;;;;4.70;3.60;;;25.40;59.50;;;;;;5006495;28;20901;-66
2022/08/01 10:06:54;;;;;;;3.92;3.47;;;25.40;59.50;;;;;;4994213;28;20395;-66
2022/08/01 10:09:32;;;;;;;4.85;3.47;;;25.40;59.50;;;;;;4991091;28;20426;-65
2022/08/01 10:11:59;;;;;;;4.82;3.50;;;25.40;59.40;;;;;;4992478;28;20402;-66
2022/08/01 10:14:26;;;;;;;5.30;3.50;;;25.40;59.40;;;;;;4992434;28;20394;-66
2022/08/01 10:16:55;;;;;;;5.30;3.55;;;25.40;59.40;;;;;;4992287;28;20394;-65
2022/08/01 10:19:23;;;;;;;4.07;3.67;;;25.40;59.30;;;;;;4992369;28;20382;-65
2022/08/01 10:21:52;;;;;;;4.17;3.60;;;25.40;59.30;;;;;;4975036;28;20406;-66
2022/08/01 10:24:22;;;;;;;4.97;3.40;;;25.40;59.30;;;;;;4974330;28;20405;-65
2022/08/01 10:26:51;;;;;;;4.05;3.40;;;25.40;59.20;;;;;;4974833;28;20405;-66
2022/08/01 10:29:18;;;;;;;3.92;3.20;;;25.50;59.30;;;;;;4990854;28;20418;-67
2022/08/01 10:31:45;;;;;;;5.00;3.03;;;25.50;59.20;;;;;;4992128;28;20479;-66
2022/08/01 10:34:14;;;;;;;4.18;3.78;;;25.50;59.20;;;;;;4991611;28;20756;-65
2022/08/01 10:36:42;;;;;;;4.05;3.42;;;25.50;59.20;;;;;;4971206;28;20408;-66
2022/08/01 10:39:10;;;;;;;3.90;3.20;;;25.50;59.20;;;;;;4972723;28;20392;-66
2022/08/01 10:41:37;;;;;;;4.03;3.20;;;25.50;59.20;;;;;;4972614;28;20509;-66
2022/08/01 10:44:03;;;;;;;3.90;3.50;;;25.50;59.10;;;;;;4972244;28;20400;-67
2022/08/01 10:46:30;;;;;;;3.80;3.22;;;25.50;59.10;;;;;;4972590;28;20396;-65
2022/08/01 10:49:12;;;;;;;4.28;2.90;;;25.50;59.10;;;;;;4971389;28;20424;-65
2022/08/01 10:51:40;;;;;;;4.13;2.92;;;25.50;59.00;;;;;;4972537;28;20471;-65
2022/08/01 10:54:07;;;;;;;3.42;3.13;;;25.50;59.00;;;;;;4972225;28;20428;-65
2022/08/01 10:56:44;;;;;;;3.83;3.40;;;25.50;58.90;;;;;;4972425;28;20400;-66
2022/08/01 10:59:24;;;;;;;3.25;2.90;;;25.50;59.00;;;;;;4972485;28;20402;-65
2022/08/01 11:02:04;;;;;;;3.80;3.33;;;25.50;58.90;;;;;;4972396;28;20400;-65
2022/08/01 11:04:39;;;;;;;3.72;3.40;;;25.60;59.00;;;;;;4972423;28;20451;-66
2022/08/01 11:07:07;;;;;;;3.13;2.83;;;25.50;58.80;;;;;;4972562;28;20407;-71
2022/08/01 11:09:45;;;;;;;3.67;3.10;;;25.50;58.80;;;;;;4971160;28;20435;-66
2022/08/01 11:12:16;;;;;;;3.40;3.10;;;25.60;58.90;;;;;;4971904;28;20447;-66
2022/08/01 11:15:00;;;;;;;3.40;3.10;;;25.60;58.90;;;;;;4972439;28;20388;-71
2022/08/01 11:17:50;;;;;;;3.47;3.00;;;25.60;58.80;;;;;;4972736;28;20415;-66
2022/08/01 11:20:24;;;;;;;3.38;3.08;;;25.60;58.70;;;;;;4975657;28;20398;-67
2022/08/01 11:22:59;;;;;;;3.50;3.20;;;25.60;58.70;;;;;;4975998;28;20460;-66
2022/08/01 11:25:37;;;;;;;3.42;3.13;;;25.60;58.70;;;;;;4974741;28;20428;-65
2022/08/01 11:28:19;;;;;;;3.63;3.10;;;25.60;58.70;;;;;;4975685;28;20388;-65
2022/08/01 11:30:49;;;;;;;3.38;2.90;;;25.60;58.60;;;;;;4975814;28;20436;-65
2022/08/01 11:33:17;;;;;;;3.90;3.13;;;25.60;58.50;;;;;;4974408;28;20479;-65
2022/08/01 11:36:11;;;;;;;3.10;2.80;;;25.70;58.50;;;;;;4976647;28;20916;-66
2022/08/01 11:38:41;;;;;;;3.53;2.92;;;25.70;58.50;;;;;;4977689;28;20409;-65
2022/08/01 11:41:24;;;;;;;3.55;2.85;;;25.70;58.50;;;;;;4977708;28;20890;-66
2022/08/01 11:44:03;;;;;;;3.38;2.80;;;25.70;58.50;;;;;;4977603;28;20407;-65
2022/08/01 11:46:47;;;;;;;3.00;2.70;;;25.70;58.40;;;;;;4994747;28;20394;-66
2022/08/01 11:49:38;;;;;;;3.10;2.75;;;25.80;58.50;;;;;;4977396;28;20426;-66
2022/08/01 11:52:10;;;;;;;3.17;2.88;;;25.70;58.40;;;;;;4977313;28;20401;-65
2022/08/01 11:54:43;;;;;;;3.17;2.83;;;25.80;58.40;;;;;;4994886;28;20391;-65
2022/08/01 11:57:13;;;;;;;3.10;2.80;;;25.80;58.40;;;;;;4977328;28;20382;-65
2022/08/01 11:59:48;;;;;;;3.20;2.90;;;25.80;58.40;;;;;;4994769;28;20475;-65
2022/08/01 12:02:24;;;;;;;3.28;2.97;;;25.80;58.40;;;;;;4976864;28;20413;-66
2022/08/01 12:04:58;;;;;;;7.30;3.20;;;25.80;58.20;;;;;;4977166;28;20399;-66
2022/08/01 12:07:27;;;;;;;3.88;2.83;;;25.80;59.20;;;;;;4977288;28;20403;-66
2022/08/01 12:10:10;;;;;;;5.50;3.15;;;25.90;59.50;;;;;;4994654;28;20464;-66
2022/08/01 12:12:44;;;;;;;4.37;3.10;;;25.90;60.20;;;;;;4993139;28;20521;-67
2022/08/01 12:15:10;;;;;;;7.70;3.50;;;26.00;59.80;;;;;;4994661;28;20406;-69
2022/08/01 12:17:39;;;;;;;6.28;3.40;;;26.00;60.80;;;;;;4993231;28;20394;-67
2022/08/01 12:20:07;;;;;;;4.75;3.15;;;26.00;61.00;;;;;;4976569;28;20421;-66
2022/08/01 12:22:33;;;;;;;5.72;3.20;;;26.00;60.50;;;;;;4992970;28;20910;-66
2022/08/01 12:25:09;;;;;;;5.88;3.30;;;26.00;60.20;;;;;;4994359;28;20397;-66
2022/08/01 12:27:36;;;;;;;6.03;3.03;;;26.00;60.10;;;;;;4976649;28;20402;-66
2022/08/01 12:30:05;;;;;;;7.60;3.03;;;26.10;59.90;;;;;;4975660;28;21009;-66
2022/08/01 12:32:35;;;;;;;5.00;3.15;;;26.10;59.50;;;;;;4976369;28;20387;-65
2022/08/01 12:35:05;;;;;;;4.43;2.80;;;26.10;59.40;;;;;;4992959;28;20910;-66
2022/08/01 12:37:36;;;;;;;3.58;2.78;;;26.10;59.10;;;;;;4993481;28;20413;-65
2022/08/01 12:40:29;;;;;;;3.88;2.60;;;26.10;59.20;;;;;;4992499;28;20446;-66
2022/08/01 12:43:01;;;;;;;3.30;2.92;;;26.10;59.10;;;;;;4975772;28;20464;-66
2022/08/01 12:45:32;;;;;;;4.07;2.75;;;26.20;59.10;;;;;;4993905;28;20401;-67
2022/08/01 12:47:59;;;;;;;5.60;2.93;;;26.20;59.50;;;;;;4976226;28;20600;-66
2022/08/01 12:50:29;;;;;;;4.15;2.70;;;26.20;58.80;;;;;;4993161;28;20419;-65
2022/08/01 12:52:56;;;;;;;5.47;2.75;;;26.20;58.40;;;;;;4992627;28;20417;-66
2022/08/01 12:55:26;;;;;;;3.33;2.55;;;26.20;58.20;;;;;;4976384;28;20406;-66
2022/08/01 12:58:08;;;;;;;2.88;2.55;;;26.20;58.00;;;;;;4993786;28;20390;-66
2022/08/01 13:00:36;;;;;;;3.85;2.47;;;26.20;57.90;;;;;;4993586;28;20403;-67